sensor_id;sensor_type;location;lat;lon;timestamp;P1;durP1;ratioP1;P2;durP2;ratioP2
56911;SDS011;42800;53.928;27.662;2024-02-26T00:00:40;50.00;;;17.05;;
56911;SDS011;42800;53.928;27.662;2024-02-26T00:03:06;43.38;;;15.95;;
56911;SDS011;42800;53.928;27.662;2024-02-26T00:05:32;41.90;;;16.50;;
56911;SDS011;42800;53.928;27.662;2024-02-26T00:07:58;46.85;;;16.15;;
56911;SDS011;42800;53.928;27.662;2024-02-26T00:10:24;35.15;;;14.73;;
56911;SDS011;42800;53.928;27.662;2024-02-26T00:12:50;38.40;;;17.75;;
56911;SDS011;42800;53.928;27.662;2024-02-26T00:15:16;62.80;;;19.27;;
56911;SDS011;42800;53.928;27.662;2024-02-26T00:17:43;38.45;;;16.52;;
56911;SDS011;42800;53.928;27.662;2024-02-26T00:20:10;44.38;;;18.95;;
56911;SDS011;42800;53.928;27.662;2024-02-26T00:22:36;47.72;;;19.20;;
56911;SDS011;42800;53.928;27.662;2024-02-26T00:25:03;39.20;;;16.45;;
56911;SDS011;42800;53.928;27.662;2024-02-26T00:27:30;45.33;;;19.50;;
56911;SDS011;42800;53.928;27.662;2024-02-26T00:29:56;49.70;;;19.52;;
56911;SDS011;42800;53.928;27.662;2024-02-26T00:32:22;46.00;;;19.00;;
56911;SDS011;42800;53.928;27.662;2024-02-26T00:34:48;49.40;;;20.13;;
56911;SDS011;42800;53.928;27.662;2024-02-26T00:37:15;65.80;;;20.08;;
56911;SDS011;42800;53.928;27.662;2024-02-26T00:39:41;64.43;;;19.13;;
56911;SDS011;42800;53.928;27.662;2024-02-26T00:42:07;56.20;;;16.80;;
56911;SDS011;42800;53.928;27.662;2024-02-26T00:44:34;61.38;;;18.25;;
56911;SDS011;42800;53.928;27.662;2024-02-26T00:47:00;48.65;;;19.27;;
56911;SDS011;42800;53.928;27.662;2024-02-26T00:49:26;59.28;;;21.38;;
56911;SDS011;42800;53.928;27.662;2024-02-26T00:51:52;54.40;;;19.95;;
56911;SDS011;42800;53.928;27.662;2024-02-26T00:54:18;56.25;;;19.80;;
56911;SDS011;42800;53.928;27.662;2024-02-26T00:56:44;52.65;;;21.48;;
56911;SDS011;42800;53.928;27.662;2024-02-26T00:59:10;63.15;;;21.10;;
56911;SDS011;42800;53.928;27.662;2024-02-26T01:01:36;55.08;;;20.73;;
56911;SDS011;42800;53.928;27.662;2024-02-26T01:04:02;56.97;;;20.92;;
56911;SDS011;42800;53.928;27.662;2024-02-26T01:06:29;45.33;;;18.05;;
56911;SDS011;42800;53.928;27.662;2024-02-26T01:08:55;50.88;;;17.48;;
56911;SDS011;42800;53.928;27.662;2024-02-26T01:11:21;44.78;;;15.57;;
56911;SDS011;42800;53.928;27.662;2024-02-26T01:13:47;37.22;;;15.02;;
56911;SDS011;42800;53.928;27.662;2024-02-26T01:16:13;36.33;;;14.95;;
56911;SDS011;42800;53.928;27.662;2024-02-26T01:18:39;35.25;;;14.50;;
56911;SDS011;42800;53.928;27.662;2024-02-26T01:21:05;38.33;;;16.27;;
56911;SDS011;42800;53.928;27.662;2024-02-26T01:23:33;38.88;;;16.10;;
56911;SDS011;42800;53.928;27.662;2024-02-26T01:26:00;43.00;;;15.02;;
56911;SDS011;42800;53.928;27.662;2024-02-26T01:28:27;41.33;;;14.52;;
56911;SDS011;42800;53.928;27.662;2024-02-26T01:30:53;50.60;;;15.60;;
56911;SDS011;42800;53.928;27.662;2024-02-26T01:33:19;29.42;;;14.63;;
56911;SDS011;42800;53.928;27.662;2024-02-26T01:35:45;37.22;;;15.57;;
56911;SDS011;42800;53.928;27.662;2024-02-26T01:38:12;43.58;;;15.48;;
56911;SDS011;42800;53.928;27.662;2024-02-26T01:40:37;46.72;;;16.55;;
56911;SDS011;42800;53.928;27.662;2024-02-26T01:43:04;35.97;;;14.20;;
56911;SDS011;42800;53.928;27.662;2024-02-26T01:45:30;37.53;;;16.10;;
56911;SDS011;42800;53.928;27.662;2024-02-26T01:47:56;47.63;;;16.70;;
56911;SDS011;42800;53.928;27.662;2024-02-26T01:50:22;38.50;;;16.85;;
56911;SDS011;42800;53.928;27.662;2024-02-26T01:52:49;33.65;;;14.70;;
56911;SDS011;42800;53.928;27.662;2024-02-26T01:55:16;27.08;;;12.57;;
56911;SDS011;42800;53.928;27.662;2024-02-26T01:57:43;35.20;;;16.85;;
56911;SDS011;42800;53.928;27.662;2024-02-26T02:00:13;31.20;;;15.13;;
56911;SDS011;42800;53.928;27.662;2024-02-26T02:02:41;33.88;;;16.23;;
56911;SDS011;42800;53.928;27.662;2024-02-26T02:05:09;36.85;;;13.73;;
56911;SDS011;42800;53.928;27.662;2024-02-26T02:07:37;35.13;;;16.50;;
56911;SDS011;42800;53.928;27.662;2024-02-26T02:10:03;34.20;;;15.02;;
56911;SDS011;42800;53.928;27.662;2024-02-26T02:12:31;39.40;;;13.00;;
56911;SDS011;42800;53.928;27.662;2024-02-26T02:14:58;27.98;;;14.52;;
56911;SDS011;42800;53.928;27.662;2024-02-26T02:17:24;27.00;;;13.93;;
56911;SDS011;42800;53.928;27.662;2024-02-26T02:19:51;32.20;;;14.80;;
56911;SDS011;42800;53.928;27.662;2024-02-26T02:22:17;25.95;;;12.98;;
56911;SDS011;42800;53.928;27.662;2024-02-26T02:24:44;20.90;;;12.50;;
56911;SDS011;42800;53.928;27.662;2024-02-26T02:27:10;30.10;;;12.75;;
56911;SDS011;42800;53.928;27.662;2024-02-26T02:29:36;28.15;;;13.45;;
56911;SDS011;42800;53.928;27.662;2024-02-26T02:32:02;30.60;;;12.80;;
56911;SDS011;42800;53.928;27.662;2024-02-26T02:34:30;31.05;;;16.15;;
56911;SDS011;42800;53.928;27.662;2024-02-26T02:36:57;27.08;;;13.68;;
56911;SDS011;42800;53.928;27.662;2024-02-26T02:39:23;31.10;;;13.93;;
56911;SDS011;42800;53.928;27.662;2024-02-26T02:41:49;23.35;;;13.10;;
56911;SDS011;42800;53.928;27.662;2024-02-26T02:44:15;29.38;;;13.82;;
56911;SDS011;42800;53.928;27.662;2024-02-26T02:46:41;21.77;;;12.80;;
56911;SDS011;42800;53.928;27.662;2024-02-26T02:49:08;27.33;;;13.48;;
56911;SDS011;42800;53.928;27.662;2024-02-26T02:51:35;20.83;;;11.90;;
56911;SDS011;42800;53.928;27.662;2024-02-26T02:54:01;29.40;;;13.48;;
56911;SDS011;42800;53.928;27.662;2024-02-26T02:56:27;37.47;;;16.17;;
56911;SDS011;42800;53.928;27.662;2024-02-26T02:58:53;30.13;;;14.90;;
56911;SDS011;42800;53.928;27.662;2024-02-26T03:01:19;31.35;;;14.88;;
56911;SDS011;42800;53.928;27.662;2024-02-26T03:03:45;28.23;;;12.27;;
56911;SDS011;42800;53.928;27.662;2024-02-26T03:06:11;41.50;;;17.52;;
56911;SDS011;42800;53.928;27.662;2024-02-26T03:08:37;33.90;;;16.10;;
56911;SDS011;42800;53.928;27.662;2024-02-26T03:11:04;31.25;;;15.40;;
56911;SDS011;42800;53.928;27.662;2024-02-26T03:13:31;50.42;;;19.13;;
56911;SDS011;42800;53.928;27.662;2024-02-26T03:15:57;47.20;;;17.45;;
56911;SDS011;42800;53.928;27.662;2024-02-26T03:18:23;45.42;;;20.70;;
56911;SDS011;42800;53.928;27.662;2024-02-26T03:20:49;52.08;;;19.77;;
56911;SDS011;42800;53.928;27.662;2024-02-26T03:23:15;40.25;;;16.85;;
56911;SDS011;42800;53.928;27.662;2024-02-26T03:25:42;41.17;;;17.98;;
56911;SDS011;42800;53.928;27.662;2024-02-26T03:28:09;38.85;;;17.48;;
56911;SDS011;42800;53.928;27.662;2024-02-26T03:30:35;36.97;;;18.45;;
56911;SDS011;42800;53.928;27.662;2024-02-26T03:33:01;38.65;;;18.08;;
56911;SDS011;42800;53.928;27.662;2024-02-26T03:35:27;36.97;;;17.75;;
56911;SDS011;42800;53.928;27.662;2024-02-26T03:37:53;41.10;;;19.40;;
56911;SDS011;42800;53.928;27.662;2024-02-26T03:40:19;37.08;;;19.33;;
56911;SDS011;42800;53.928;27.662;2024-02-26T03:42:45;28.13;;;16.17;;
56911;SDS011;42800;53.928;27.662;2024-02-26T03:45:12;32.85;;;16.17;;
56911;SDS011;42800;53.928;27.662;2024-02-26T03:47:38;31.00;;;16.00;;
56911;SDS011;42800;53.928;27.662;2024-02-26T03:50:05;34.80;;;17.80;;
56911;SDS011;42800;53.928;27.662;2024-02-26T03:52:32;29.92;;;15.50;;
56911;SDS011;42800;53.928;27.662;2024-02-26T03:54:59;37.85;;;14.10;;
56911;SDS011;42800;53.928;27.662;2024-02-26T03:57:24;29.30;;;18.67;;
56911;SDS011;42800;53.928;27.662;2024-02-26T03:59:50;29.08;;;14.98;;
56911;SDS011;42800;53.928;27.662;2024-02-26T04:02:16;23.25;;;14.80;;
56911;SDS011;42800;53.928;27.662;2024-02-26T04:04:45;25.92;;;15.23;;
56911;SDS011;42800;53.928;27.662;2024-02-26T04:07:11;31.27;;;16.15;;
56911;SDS011;42800;53.928;27.662;2024-02-26T04:09:38;22.77;;;13.68;;
56911;SDS011;42800;53.928;27.662;2024-02-26T04:12:04;26.63;;;14.82;;
56911;SDS011;42800;53.928;27.662;2024-02-26T04:14:30;26.35;;;13.10;;
56911;SDS011;42800;53.928;27.662;2024-02-26T04:16:56;31.55;;;15.55;;
56911;SDS011;42800;53.928;27.662;2024-02-26T04:19:22;16.85;;;11.13;;
56911;SDS011;42800;53.928;27.662;2024-02-26T04:21:49;26.30;;;14.20;;
56911;SDS011;42800;53.928;27.662;2024-02-26T04:24:15;28.60;;;15.02;;
56911;SDS011;42800;53.928;27.662;2024-02-26T04:26:41;18.83;;;11.05;;
56911;SDS011;42800;53.928;27.662;2024-02-26T04:29:07;30.52;;;14.70;;
56911;SDS011;42800;53.928;27.662;2024-02-26T04:31:33;25.50;;;13.30;;
56911;SDS011;42800;53.928;27.662;2024-02-26T04:33:58;22.55;;;12.80;;
56911;SDS011;42800;53.928;27.662;2024-02-26T04:36:24;20.10;;;11.00;;
56911;SDS011;42800;53.928;27.662;2024-02-26T04:38:51;15.35;;;8.45;;
56911;SDS011;42800;53.928;27.662;2024-02-26T04:41:19;20.45;;;11.25;;
56911;SDS011;42800;53.928;27.662;2024-02-26T04:43:45;19.45;;;10.45;;
56911;SDS011;42800;53.928;27.662;2024-02-26T04:46:11;25.10;;;12.32;;
56911;SDS011;42800;53.928;27.662;2024-02-26T04:48:37;19.25;;;11.20;;
56911;SDS011;42800;53.928;27.662;2024-02-26T04:51:03;21.42;;;11.38;;
56911;SDS011;42800;53.928;27.662;2024-02-26T04:53:30;15.85;;;9.57;;
56911;SDS011;42800;53.928;27.662;2024-02-26T04:55:56;24.95;;;11.70;;
56911;SDS011;42800;53.928;27.662;2024-02-26T04:58:22;17.35;;;10.15;;
56911;SDS011;42800;53.928;27.662;2024-02-26T05:00:48;20.55;;;11.93;;
56911;SDS011;42800;53.928;27.662;2024-02-26T05:03:14;17.88;;;10.85;;
56911;SDS011;42800;53.928;27.662;2024-02-26T05:05:40;21.17;;;10.90;;
56911;SDS011;42800;53.928;27.662;2024-02-26T05:08:06;22.08;;;12.45;;
56911;SDS011;42800;53.928;27.662;2024-02-26T05:10:32;23.17;;;11.98;;
56911;SDS011;42800;53.928;27.662;2024-02-26T05:12:59;22.00;;;11.82;;
56911;SDS011;42800;53.928;27.662;2024-02-26T05:15:25;26.63;;;12.20;;
56911;SDS011;42800;53.928;27.662;2024-02-26T05:17:51;19.95;;;12.88;;
56911;SDS011;42800;53.928;27.662;2024-02-26T05:20:17;30.58;;;14.10;;
56911;SDS011;42800;53.928;27.662;2024-02-26T05:22:47;22.02;;;13.05;;
56911;SDS011;42800;53.928;27.662;2024-02-26T05:25:24;24.42;;;14.15;;
56911;SDS011;42800;53.928;27.662;2024-02-26T05:27:50;33.13;;;14.93;;
56911;SDS011;42800;53.928;27.662;2024-02-26T05:30:16;24.30;;;14.02;;
56911;SDS011;42800;53.928;27.662;2024-02-26T05:32:42;28.20;;;13.15;;
56911;SDS011;42800;53.928;27.662;2024-02-26T05:35:09;29.33;;;15.07;;
56911;SDS011;42800;53.928;27.662;2024-02-26T05:37:34;28.55;;;15.85;;
56911;SDS011;42800;53.928;27.662;2024-02-26T05:40:00;34.03;;;13.77;;
56911;SDS011;42800;53.928;27.662;2024-02-26T05:42:29;33.33;;;15.02;;
56911;SDS011;42800;53.928;27.662;2024-02-26T05:44:55;29.02;;;14.98;;
56911;SDS011;42800;53.928;27.662;2024-02-26T05:47:22;34.58;;;15.63;;
56911;SDS011;42800;53.928;27.662;2024-02-26T05:49:47;28.55;;;15.90;;
56911;SDS011;42800;53.928;27.662;2024-02-26T05:52:14;36.20;;;19.58;;
56911;SDS011;42800;53.928;27.662;2024-02-26T05:54:40;38.78;;;18.30;;
56911;SDS011;42800;53.928;27.662;2024-02-26T05:57:06;31.20;;;15.30;;
56911;SDS011;42800;53.928;27.662;2024-02-26T05:59:32;33.75;;;17.40;;
56911;SDS011;42800;53.928;27.662;2024-02-26T06:01:58;29.20;;;14.52;;
56911;SDS011;42800;53.928;27.662;2024-02-26T06:04:25;29.23;;;13.95;;
56911;SDS011;42800;53.928;27.662;2024-02-26T06:06:51;32.22;;;16.80;;
56911;SDS011;42800;53.928;27.662;2024-02-26T06:09:17;37.30;;;19.63;;
56911;SDS011;42800;53.928;27.662;2024-02-26T06:11:43;36.72;;;20.63;;
56911;SDS011;42800;53.928;27.662;2024-02-26T06:14:09;48.00;;;21.80;;
56911;SDS011;42800;53.928;27.662;2024-02-26T06:16:36;29.08;;;16.90;;
56911;SDS011;42800;53.928;27.662;2024-02-26T06:19:02;31.00;;;17.70;;
56911;SDS011;42800;53.928;27.662;2024-02-26T06:21:29;26.05;;;14.60;;
56911;SDS011;42800;53.928;27.662;2024-02-26T06:23:55;25.50;;;15.15;;
56911;SDS011;42800;53.928;27.662;2024-02-26T06:26:21;26.80;;;14.80;;
56911;SDS011;42800;53.928;27.662;2024-02-26T06:28:47;24.58;;;12.48;;
56911;SDS011;42800;53.928;27.662;2024-02-26T06:31:13;20.40;;;11.52;;
56911;SDS011;42800;53.928;27.662;2024-02-26T06:33:38;22.95;;;11.68;;
56911;SDS011;42800;53.928;27.662;2024-02-26T06:36:04;16.17;;;9.70;;
56911;SDS011;42800;53.928;27.662;2024-02-26T06:38:31;21.33;;;11.77;;
56911;SDS011;42800;53.928;27.662;2024-02-26T06:40:57;21.63;;;12.35;;
56911;SDS011;42800;53.928;27.662;2024-02-26T06:43:23;25.02;;;12.27;;
56911;SDS011;42800;53.928;27.662;2024-02-26T06:45:49;25.42;;;15.15;;
56911;SDS011;42800;53.928;27.662;2024-02-26T06:48:15;22.92;;;11.85;;
56911;SDS011;42800;53.928;27.662;2024-02-26T06:50:41;29.83;;;14.18;;
56911;SDS011;42800;53.928;27.662;2024-02-26T06:53:07;27.55;;;14.25;;
56911;SDS011;42800;53.928;27.662;2024-02-26T06:55:33;20.88;;;12.13;;
56911;SDS011;42800;53.928;27.662;2024-02-26T06:57:59;18.95;;;10.43;;
56911;SDS011;42800;53.928;27.662;2024-02-26T07:00:25;24.25;;;13.02;;
56911;SDS011;42800;53.928;27.662;2024-02-26T07:02:51;21.25;;;11.85;;
56911;SDS011;42800;53.928;27.662;2024-02-26T07:05:17;22.95;;;13.07;;
56911;SDS011;42800;53.928;27.662;2024-02-26T07:07:43;23.42;;;12.02;;
56911;SDS011;42800;53.928;27.662;2024-02-26T07:10:09;20.95;;;10.82;;
56911;SDS011;42800;53.928;27.662;2024-02-26T07:12:38;17.08;;;10.35;;
56911;SDS011;42800;53.928;27.662;2024-02-26T07:15:04;15.90;;;8.52;;
56911;SDS011;42800;53.928;27.662;2024-02-26T07:17:33;20.77;;;11.32;;
56911;SDS011;42800;53.928;27.662;2024-02-26T07:19:59;19.73;;;10.35;;
56911;SDS011;42800;53.928;27.662;2024-02-26T07:22:25;21.60;;;10.73;;
56911;SDS011;42800;53.928;27.662;2024-02-26T07:24:51;17.98;;;10.50;;
56911;SDS011;42800;53.928;27.662;2024-02-26T07:27:17;17.63;;;10.25;;
56911;SDS011;42800;53.928;27.662;2024-02-26T07:29:44;27.95;;;10.60;;
56911;SDS011;42800;53.928;27.662;2024-02-26T07:32:10;21.05;;;8.88;;
56911;SDS011;42800;53.928;27.662;2024-02-26T07:34:36;28.48;;;13.25;;
56911;SDS011;42800;53.928;27.662;2024-02-26T07:37:04;19.65;;;10.52;;
56911;SDS011;42800;53.928;27.662;2024-02-26T07:39:31;22.42;;;11.05;;
56911;SDS011;42800;53.928;27.662;2024-02-26T07:41:57;31.02;;;10.32;;
56911;SDS011;42800;53.928;27.662;2024-02-26T07:44:23;22.05;;;11.20;;
56911;SDS011;42800;53.928;27.662;2024-02-26T07:46:50;19.25;;;9.32;;
56911;SDS011;42800;53.928;27.662;2024-02-26T07:49:16;21.33;;;10.10;;
56911;SDS011;42800;53.928;27.662;2024-02-26T07:51:42;23.48;;;12.32;;
56911;SDS011;42800;53.928;27.662;2024-02-26T07:54:07;24.42;;;11.40;;
56911;SDS011;42800;53.928;27.662;2024-02-26T07:56:33;27.05;;;12.48;;
56911;SDS011;42800;53.928;27.662;2024-02-26T07:58:59;22.70;;;10.82;;
56911;SDS011;42800;53.928;27.662;2024-02-26T08:01:25;19.80;;;9.80;;
56911;SDS011;42800;53.928;27.662;2024-02-26T08:03:52;26.77;;;10.73;;
56911;SDS011;42800;53.928;27.662;2024-02-26T08:06:18;24.33;;;11.60;;
56911;SDS011;42800;53.928;27.662;2024-02-26T08:08:44;27.40;;;12.52;;
56911;SDS011;42800;53.928;27.662;2024-02-26T08:11:10;27.00;;;13.02;;
56911;SDS011;42800;53.928;27.662;2024-02-26T08:13:36;19.75;;;10.23;;
56911;SDS011;42800;53.928;27.662;2024-02-26T08:16:02;19.30;;;8.57;;
56911;SDS011;42800;53.928;27.662;2024-02-26T08:18:28;15.48;;;8.38;;
56911;SDS011;42800;53.928;27.662;2024-02-26T08:20:54;16.83;;;7.97;;
56911;SDS011;42800;53.928;27.662;2024-02-26T08:23:20;21.75;;;11.38;;
56911;SDS011;42800;53.928;27.662;2024-02-26T08:25:47;19.90;;;9.48;;
56911;SDS011;42800;53.928;27.662;2024-02-26T08:28:13;18.45;;;8.38;;
56911;SDS011;42800;53.928;27.662;2024-02-26T08:30:39;14.77;;;8.05;;
56911;SDS011;42800;53.928;27.662;2024-02-26T08:33:05;19.67;;;10.02;;
56911;SDS011;42800;53.928;27.662;2024-02-26T08:35:31;17.33;;;9.82;;
56911;SDS011;42800;53.928;27.662;2024-02-26T08:37:57;18.42;;;9.93;;
56911;SDS011;42800;53.928;27.662;2024-02-26T08:40:23;24.67;;;12.40;;
56911;SDS011;42800;53.928;27.662;2024-02-26T08:42:49;21.05;;;9.43;;
56911;SDS011;42800;53.928;27.662;2024-02-26T08:45:15;16.70;;;9.05;;
56911;SDS011;42800;53.928;27.662;2024-02-26T08:47:41;22.42;;;9.60;;
56911;SDS011;42800;53.928;27.662;2024-02-26T08:50:07;20.50;;;7.65;;
56911;SDS011;42800;53.928;27.662;2024-02-26T08:52:37;20.00;;;8.90;;
56911;SDS011;42800;53.928;27.662;2024-02-26T08:55:04;16.30;;;10.18;;
56911;SDS011;42800;53.928;27.662;2024-02-26T08:57:31;18.85;;;9.40;;
56911;SDS011;42800;53.928;27.662;2024-02-26T08:59:58;21.48;;;11.25;;
56911;SDS011;42800;53.928;27.662;2024-02-26T09:02:25;22.58;;;9.48;;
56911;SDS011;42800;53.928;27.662;2024-02-26T09:04:51;21.25;;;10.75;;
56911;SDS011;42800;53.928;27.662;2024-02-26T09:07:18;26.25;;;11.32;;
56911;SDS011;42800;53.928;27.662;2024-02-26T09:09:44;22.50;;;11.20;;
56911;SDS011;42800;53.928;27.662;2024-02-26T09:12:11;21.92;;;10.57;;
56911;SDS011;42800;53.928;27.662;2024-02-26T09:14:37;19.45;;;10.18;;
56911;SDS011;42800;53.928;27.662;2024-02-26T09:17:03;20.67;;;9.95;;
56911;SDS011;42800;53.928;27.662;2024-02-26T09:19:29;27.17;;;10.52;;
56911;SDS011;42800;53.928;27.662;2024-02-26T09:21:55;19.35;;;9.98;;
56911;SDS011;42800;53.928;27.662;2024-02-26T09:24:22;19.17;;;8.30;;
56911;SDS011;42800;53.928;27.662;2024-02-26T09:26:48;18.45;;;10.00;;
56911;SDS011;42800;53.928;27.662;2024-02-26T09:29:15;20.05;;;10.18;;
56911;SDS011;42800;53.928;27.662;2024-02-26T09:31:41;20.35;;;10.98;;
56911;SDS011;42800;53.928;27.662;2024-02-26T09:34:07;21.42;;;9.15;;
56911;SDS011;42800;53.928;27.662;2024-02-26T09:36:33;30.98;;;11.63;;
56911;SDS011;42800;53.928;27.662;2024-02-26T09:38:59;12.57;;;7.65;;
56911;SDS011;42800;53.928;27.662;2024-02-26T09:41:25;24.02;;;7.97;;
56911;SDS011;42800;53.928;27.662;2024-02-26T09:43:55;17.15;;;9.20;;
56911;SDS011;42800;53.928;27.662;2024-02-26T09:46:23;17.52;;;8.90;;
56911;SDS011;42800;53.928;27.662;2024-02-26T09:48:50;20.58;;;10.15;;
56911;SDS011;42800;53.928;27.662;2024-02-26T09:51:16;21.17;;;10.60;;
56911;SDS011;42800;53.928;27.662;2024-02-26T09:53:44;26.77;;;9.32;;
56911;SDS011;42800;53.928;27.662;2024-02-26T09:56:12;24.55;;;10.77;;
56911;SDS011;42800;53.928;27.662;2024-02-26T09:58:39;20.25;;;9.90;;
56911;SDS011;42800;53.928;27.662;2024-02-26T10:01:07;16.98;;;7.85;;
56911;SDS011;42800;53.928;27.662;2024-02-26T10:03:38;20.15;;;8.77;;
56911;SDS011;42800;53.928;27.662;2024-02-26T10:06:06;23.13;;;10.05;;
56911;SDS011;42800;53.928;27.662;2024-02-26T10:08:38;14.85;;;8.13;;
56911;SDS011;42800;53.928;27.662;2024-02-26T10:11:06;16.55;;;10.05;;
56911;SDS011;42800;53.928;27.662;2024-02-26T10:13:33;19.00;;;8.88;;
56911;SDS011;42800;53.928;27.662;2024-02-26T10:16:00;15.00;;;9.02;;
56911;SDS011;42800;53.928;27.662;2024-02-26T10:18:29;16.27;;;9.32;;
56911;SDS011;42800;53.928;27.662;2024-02-26T10:21:11;18.15;;;10.05;;
56911;SDS011;42800;53.928;27.662;2024-02-26T10:23:37;17.55;;;9.85;;
56911;SDS011;42800;53.928;27.662;2024-02-26T10:26:03;13.90;;;8.20;;
56911;SDS011;42800;53.928;27.662;2024-02-26T10:28:30;17.63;;;8.15;;
56911;SDS011;42800;53.928;27.662;2024-02-26T10:30:56;15.25;;;8.70;;
56911;SDS011;42800;53.928;27.662;2024-02-26T10:33:22;21.25;;;11.43;;
56911;SDS011;42800;53.928;27.662;2024-02-26T10:35:48;15.50;;;8.07;;
56911;SDS011;42800;53.928;27.662;2024-02-26T10:38:14;14.60;;;8.45;;
56911;SDS011;42800;53.928;27.662;2024-02-26T10:40:45;21.20;;;9.75;;
56911;SDS011;42800;53.928;27.662;2024-02-26T10:43:11;13.90;;;9.07;;
56911;SDS011;42800;53.928;27.662;2024-02-26T10:45:38;17.13;;;9.50;;
56911;SDS011;42800;53.928;27.662;2024-02-26T10:48:09;24.88;;;10.25;;
56911;SDS011;42800;53.928;27.662;2024-02-26T10:50:35;27.77;;;10.93;;
56911;SDS011;42800;53.928;27.662;2024-02-26T10:53:02;15.40;;;8.38;;
56911;SDS011;42800;53.928;27.662;2024-02-26T10:55:30;22.55;;;10.60;;
56911;SDS011;42800;53.928;27.662;2024-02-26T10:57:58;23.92;;;12.27;;
56911;SDS011;42800;53.928;27.662;2024-02-26T11:00:24;12.75;;;8.23;;
56911;SDS011;42800;53.928;27.662;2024-02-26T11:02:51;16.67;;;8.98;;
56911;SDS011;42800;53.928;27.662;2024-02-26T11:05:18;19.48;;;9.55;;
56911;SDS011;42800;53.928;27.662;2024-02-26T11:07:45;16.95;;;8.73;;
56911;SDS011;42800;53.928;27.662;2024-02-26T11:10:15;19.65;;;8.48;;
56911;SDS011;42800;53.928;27.662;2024-02-26T11:12:42;29.40;;;8.43;;
56911;SDS011;42800;53.928;27.662;2024-02-26T11:15:09;17.38;;;6.93;;
56911;SDS011;42800;53.928;27.662;2024-02-26T11:17:35;16.83;;;7.95;;
56911;SDS011;42800;53.928;27.662;2024-02-26T11:20:04;17.75;;;9.07;;
56911;SDS011;42800;53.928;27.662;2024-02-26T11:22:30;20.27;;;9.75;;
56911;SDS011;42800;53.928;27.662;2024-02-26T11:24:58;16.98;;;8.70;;
56911;SDS011;42800;53.928;27.662;2024-02-26T11:27:28;18.70;;;9.95;;
56911;SDS011;42800;53.928;27.662;2024-02-26T11:29:57;22.88;;;9.88;;
56911;SDS011;42800;53.928;27.662;2024-02-26T11:32:26;22.13;;;9.52;;
56911;SDS011;42800;53.928;27.662;2024-02-26T11:34:52;24.52;;;10.15;;
56911;SDS011;42800;53.928;27.662;2024-02-26T11:37:19;20.27;;;9.95;;
56911;SDS011;42800;53.928;27.662;2024-02-26T11:39:46;20.17;;;10.95;;
56911;SDS011;42800;53.928;27.662;2024-02-26T11:42:13;20.15;;;9.60;;
56911;SDS011;42800;53.928;27.662;2024-02-26T11:44:41;18.33;;;7.88;;
56911;SDS011;42800;53.928;27.662;2024-02-26T11:47:10;18.92;;;8.60;;
56911;SDS011;42800;53.928;27.662;2024-02-26T11:49:37;21.55;;;9.88;;
56911;SDS011;42800;53.928;27.662;2024-02-26T11:52:04;15.80;;;7.55;;
56911;SDS011;42800;53.928;27.662;2024-02-26T11:57:20;20.27;;;11.55;;
56911;SDS011;42800;53.928;27.662;2024-02-26T11:59:47;29.67;;;9.70;;
56911;SDS011;42800;53.928;27.662;2024-02-26T12:05:11;24.60;;;10.75;;
56911;SDS011;42800;53.928;27.662;2024-02-26T12:07:39;21.75;;;9.70;;
56911;SDS011;42800;53.928;27.662;2024-02-26T12:10:15;14.15;;;7.30;;
56911;SDS011;42800;53.928;27.662;2024-02-26T12:12:46;22.95;;;8.63;;
56911;SDS011;42800;53.928;27.662;2024-02-26T12:15:12;16.02;;;7.93;;
56911;SDS011;42800;53.928;27.662;2024-02-26T12:17:40;20.58;;;8.75;;
56911;SDS011;42800;53.928;27.662;2024-02-26T12:20:10;17.38;;;8.48;;
56911;SDS011;42800;53.928;27.662;2024-02-26T12:22:38;32.25;;;9.45;;
56911;SDS011;42800;53.928;27.662;2024-02-26T12:25:06;19.98;;;9.00;;
56911;SDS011;42800;53.928;27.662;2024-02-26T12:27:34;19.42;;;9.63;;
56911;SDS011;42800;53.928;27.662;2024-02-26T12:30:00;19.50;;;8.82;;
56911;SDS011;42800;53.928;27.662;2024-02-26T12:32:28;15.77;;;8.80;;
56911;SDS011;42800;53.928;27.662;2024-02-26T12:34:55;16.30;;;8.23;;
56911;SDS011;42800;53.928;27.662;2024-02-26T12:37:22;19.83;;;9.02;;
56911;SDS011;42800;53.928;27.662;2024-02-26T12:39:48;16.90;;;9.00;;
56911;SDS011;42800;53.928;27.662;2024-02-26T12:42:15;18.75;;;8.88;;
56911;SDS011;42800;53.928;27.662;2024-02-26T12:44:41;28.40;;;11.27;;
56911;SDS011;42800;53.928;27.662;2024-02-26T12:47:07;19.85;;;8.95;;
56911;SDS011;42800;53.928;27.662;2024-02-26T12:49:34;19.40;;;8.68;;
56911;SDS011;42800;53.928;27.662;2024-02-26T12:51:59;19.33;;;7.97;;
56911;SDS011;42800;53.928;27.662;2024-02-26T12:54:27;21.60;;;8.88;;
56911;SDS011;42800;53.928;27.662;2024-02-26T12:56:53;17.02;;;6.88;;
56911;SDS011;42800;53.928;27.662;2024-02-26T12:59:20;14.75;;;7.28;;
56911;SDS011;42800;53.928;27.662;2024-02-26T13:01:46;24.25;;;9.20;;
56911;SDS011;42800;53.928;27.662;2024-02-26T13:04:12;18.98;;;8.57;;
56911;SDS011;42800;53.928;27.662;2024-02-26T13:06:39;22.45;;;9.30;;
56911;SDS011;42800;53.928;27.662;2024-02-26T13:09:05;20.02;;;9.02;;
56911;SDS011;42800;53.928;27.662;2024-02-26T13:11:31;16.05;;;8.38;;
56911;SDS011;42800;53.928;27.662;2024-02-26T13:13:58;16.48;;;9.27;;
56911;SDS011;42800;53.928;27.662;2024-02-26T13:16:24;18.02;;;8.13;;
56911;SDS011;42800;53.928;27.662;2024-02-26T13:18:50;19.13;;;9.32;;
56911;SDS011;42800;53.928;27.662;2024-02-26T13:21:17;19.10;;;8.88;;
56911;SDS011;42800;53.928;27.662;2024-02-26T13:23:47;20.10;;;8.93;;
56911;SDS011;42800;53.928;27.662;2024-02-26T13:26:15;21.73;;;8.80;;
56911;SDS011;42800;53.928;27.662;2024-02-26T13:28:41;22.80;;;9.07;;
56911;SDS011;42800;53.928;27.662;2024-02-26T13:31:07;17.83;;;9.52;;
56911;SDS011;42800;53.928;27.662;2024-02-26T13:33:34;19.25;;;8.30;;
56911;SDS011;42800;53.928;27.662;2024-02-26T13:36:00;27.10;;;9.48;;
56911;SDS011;42800;53.928;27.662;2024-02-26T13:38:26;28.38;;;9.90;;
56911;SDS011;42800;53.928;27.662;2024-02-26T13:40:54;17.65;;;8.45;;
56911;SDS011;42800;53.928;27.662;2024-02-26T13:43:20;25.35;;;9.27;;
56911;SDS011;42800;53.928;27.662;2024-02-26T13:45:46;19.17;;;8.45;;
56911;SDS011;42800;53.928;27.662;2024-02-26T13:48:13;25.17;;;9.60;;
56911;SDS011;42800;53.928;27.662;2024-02-26T13:50:39;27.52;;;10.43;;
56911;SDS011;42800;53.928;27.662;2024-02-26T13:53:06;22.42;;;9.75;;
56911;SDS011;42800;53.928;27.662;2024-02-26T13:55:32;25.00;;;8.95;;
56911;SDS011;42800;53.928;27.662;2024-02-26T13:57:59;22.48;;;9.07;;
56911;SDS011;42800;53.928;27.662;2024-02-26T14:00:26;28.08;;;10.13;;
56911;SDS011;42800;53.928;27.662;2024-02-26T14:02:52;23.10;;;9.98;;
56911;SDS011;42800;53.928;27.662;2024-02-26T14:05:18;17.50;;;8.48;;
56911;SDS011;42800;53.928;27.662;2024-02-26T14:07:50;22.90;;;9.02;;
56911;SDS011;42800;53.928;27.662;2024-02-26T14:10:16;28.60;;;8.95;;
56911;SDS011;42800;53.928;27.662;2024-02-26T14:12:42;25.27;;;8.93;;
56911;SDS011;42800;53.928;27.662;2024-02-26T14:15:09;16.60;;;7.78;;